createdAt,value
2023-02-23T00:02:26.826Z,56.33
2023-02-23T00:04:53.675Z,56.08
2023-02-23T00:07:20.527Z,55.97
2023-02-23T00:09:47.403Z,55.78
2023-02-23T00:12:14.429Z,56.34
2023-02-23T00:14:41.268Z,55.87
2023-02-23T00:17:08.280Z,55.48
2023-02-23T00:19:35.239Z,54.92
2023-02-23T00:22:02.248Z,54.90
2023-02-23T00:24:29.218Z,55.23
2023-02-23T00:26:56.227Z,55.21
2023-02-23T00:29:24.474Z,54.74
2023-02-23T00:31:52.482Z,54.77
2023-02-23T00:34:21.655Z,54.65
2023-02-23T00:36:54.756Z,54.65
2023-02-23T00:39:23.830Z,55.02
2023-02-23T00:41:51.475Z,54.38
2023-02-23T00:44:19.124Z,54.39
2023-02-23T00:46:46.299Z,54.33
2023-02-23T00:49:13.663Z,54.13
2023-02-23T00:51:41.494Z,54.40
2023-02-23T00:54:11.076Z,54.29
2023-02-23T00:56:38.824Z,54.28
2023-02-23T00:59:06.332Z,55.02
2023-02-23T01:01:33.964Z,55.41
2023-02-23T01:04:02.133Z,56.02
2023-02-23T01:06:30.854Z,55.45
2023-02-23T01:08:58.036Z,55.45
2023-02-23T01:11:27.482Z,55.57
2023-02-23T01:13:57.419Z,55.47
2023-02-23T01:16:27.994Z,55.53
2023-02-23T01:18:57.488Z,56.08
2023-02-23T01:21:36.661Z,56.22
2023-02-23T01:24:04.224Z,55.91
2023-02-23T01:26:35.106Z,56.21
2023-02-23T01:29:22.566Z,56.02
2023-02-23T01:31:50.930Z,56.13
2023-02-23T01:34:19.777Z,56.29
2023-02-23T01:36:46.700Z,55.78
2023-02-23T01:39:16.337Z,55.90
2023-02-23T01:41:44.041Z,55.41
2023-02-23T01:44:13.947Z,55.25
2023-02-23T01:46:43.531Z,54.90
2023-02-23T01:49:16.136Z,54.94
2023-02-23T01:51:47.917Z,54.52
2023-02-23T01:54:21.532Z,54.71
2023-02-23T01:56:53.760Z,54.79
2023-02-23T01:59:21.500Z,55.22
2023-02-23T02:01:48.490Z,54.92
2023-02-23T02:04:16.106Z,54.18
2023-02-23T02:06:47.172Z,54.29
2023-02-23T02:09:18.012Z,54.17
2023-02-23T02:11:45.175Z,54.59
2023-02-23T02:14:23.510Z,53.91
2023-02-23T02:17:11.617Z,54.48
2023-02-23T02:19:47.638Z,53.74
2023-02-23T02:22:41.355Z,54.21
2023-02-23T02:25:50.279Z,54.33
2023-02-23T02:28:47.170Z,54.68
2023-02-23T02:31:32.829Z,55.10
2023-02-23T02:34:55.444Z,54.67
2023-02-23T02:37:27.261Z,55.01
2023-02-23T02:40:10.318Z,55.33
2023-02-23T02:42:48.739Z,55.00
2023-02-23T02:45:42.083Z,55.86
2023-02-23T02:48:24.119Z,55.62
2023-02-23T02:50:58.364Z,55.30
2023-02-23T02:53:54.522Z,55.42
2023-02-23T02:56:25.500Z,55.13
2023-02-23T02:58:54.104Z,54.95
2023-02-23T03:01:21.602Z,55.72
2023-02-23T03:03:50.753Z,54.54
2023-02-23T03:06:22.249Z,54.56
2023-02-23T03:09:02.050Z,54.82
2023-02-23T03:12:13.328Z,55.13
2023-02-23T03:15:08.971Z,54.35
2023-02-23T03:17:47.869Z,54.94
2023-02-23T03:20:20.013Z,55.20
2023-02-23T03:23:22.091Z,54.76
2023-02-23T03:25:59.328Z,54.89
2023-02-23T03:28:34.878Z,54.67
2023-02-23T03:31:20.463Z,54.31
2023-02-23T03:34:14.754Z,54.35
2023-02-23T03:36:48.065Z,54.58
2023-02-23T03:39:28.603Z,54.37
2023-02-23T03:41:59.103Z,54.75
2023-02-23T03:44:32.682Z,55.51
2023-02-23T03:47:03.474Z,55.11
2023-02-23T03:49:36.631Z,54.61
2023-02-23T03:52:13.828Z,54.81
2023-02-23T03:54:47.919Z,55.03
2023-02-23T03:57:19.007Z,54.96
2023-02-23T04:00:04.542Z,54.43
2023-02-23T04:02:42.812Z,55.20
2023-02-23T04:05:16.264Z,55.08
2023-02-23T04:07:47.575Z,54.36
2023-02-23T04:10:14.618Z,54.69
2023-02-23T04:13:00.899Z,55.44
2023-02-23T04:15:33.118Z,55.08
2023-02-23T04:18:00.297Z,55.08
2023-02-23T04:20:27.678Z,55.14
2023-02-23T04:22:54.835Z,55.20
2023-02-23T04:25:21.860Z,55.84
2023-02-23T04:27:50.263Z,55.01
2023-02-23T04:30:17.757Z,55.68
2023-02-23T04:32:45.024Z,55.11
2023-02-23T04:35:13.391Z,55.64
2023-02-23T04:37:40.356Z,55.11
2023-02-23T04:40:08.077Z,54.98
2023-02-23T04:42:35.076Z,54.67
2023-02-23T04:45:01.957Z,54.61
2023-02-23T04:47:28.922Z,54.11
2023-02-23T04:49:55.766Z,53.36
2023-02-23T04:52:22.823Z,53.90
2023-02-23T04:54:49.740Z,53.72
2023-02-23T04:57:16.822Z,53.64
2023-02-23T04:59:43.967Z,53.55
2023-02-23T05:02:11.035Z,53.18
2023-02-23T05:04:38.023Z,53.23
2023-02-23T05:07:05.509Z,52.87
2023-02-23T05:09:32.528Z,52.73
2023-02-23T05:11:59.929Z,52.07
2023-02-23T05:14:26.989Z,52.66
2023-02-23T05:16:54.155Z,52.28
2023-02-23T05:19:22.121Z,52.21
2023-02-23T05:21:49.117Z,52.21
2023-02-23T05:24:16.675Z,52.20
2023-02-23T05:26:44.449Z,51.93
2023-02-23T05:29:12.290Z,51.78
2023-02-23T05:31:42.500Z,51.73
2023-02-23T05:34:09.501Z,51.38
2023-02-23T05:36:38.946Z,50.55
2023-02-23T05:39:06.078Z,50.80
2023-02-23T05:41:33.069Z,51.28
2023-02-23T05:44:00.009Z,51.17
2023-02-23T05:46:28.073Z,50.24
2023-02-23T05:49:01.960Z,50.63
2023-02-23T05:51:31.853Z,49.93
2023-02-23T05:53:58.834Z,50.32
2023-02-23T05:56:25.879Z,49.67
2023-02-23T05:58:55.199Z,48.94
2023-02-23T06:01:27.611Z,48.37
2023-02-23T06:03:54.801Z,47.82
2023-02-23T06:06:22.316Z,47.72
2023-02-23T06:08:51.993Z,47.42
2023-02-23T06:11:19.378Z,48.06
2023-02-23T06:13:46.580Z,47.68
2023-02-23T06:16:13.734Z,47.68
2023-02-23T06:18:40.879Z,46.43
2023-02-23T06:21:07.759Z,46.88
2023-02-23T06:23:34.787Z,45.94
2023-02-23T06:26:02.916Z,45.88
2023-02-23T06:28:30.576Z,46.68
2023-02-23T06:31:02.328Z,46.19
2023-02-23T06:33:29.884Z,46.33
2023-02-23T06:35:56.900Z,45.06
2023-02-23T06:38:23.990Z,45.40
2023-02-23T06:40:51.048Z,44.67
2023-02-23T06:43:18.087Z,44.15
2023-02-23T06:45:47.168Z,43.96
2023-02-23T06:48:14.489Z,43.09
2023-02-23T06:50:41.520Z,43.39
2023-02-23T06:53:08.588Z,43.46
2023-02-23T06:55:35.515Z,42.73
2023-02-23T06:58:02.528Z,42.98
2023-02-23T07:00:29.432Z,42.97
2023-02-23T07:02:57.580Z,42.77
2023-02-23T07:05:24.501Z,42.83
2023-02-23T07:07:51.647Z,42.82
2023-02-23T07:10:18.725Z,44.11
2023-02-23T07:12:48.589Z,42.57
2023-02-23T07:15:15.659Z,43.14
2023-02-23T07:17:42.783Z,42.35
2023-02-23T07:20:10.821Z,41.22
2023-02-23T07:22:39.775Z,41.07
2023-02-23T07:25:07.601Z,41.77
2023-02-23T07:27:34.605Z,41.51
2023-02-23T07:30:05.152Z,40.08
2023-02-23T07:32:32.835Z,39.64
2023-02-23T07:35:00.011Z,40.58
2023-02-23T07:37:27.251Z,40.17
2023-02-23T07:39:54.389Z,39.10
2023-02-23T07:42:21.476Z,38.76
2023-02-23T07:44:48.435Z,38.70
2023-02-23T07:47:18.287Z,39.51
2023-02-23T07:49:45.127Z,39.74
2023-02-23T07:52:12.070Z,39.35
2023-02-23T07:54:38.989Z,39.50
2023-02-23T07:57:05.978Z,37.71
2023-02-23T07:59:32.922Z,38.51
2023-02-23T08:01:59.950Z,38.09
2023-02-23T08:04:26.994Z,39.96
2023-02-23T08:06:54.300Z,39.69
2023-02-23T08:09:22.505Z,39.44
2023-02-23T08:11:49.735Z,39.99
2023-02-23T08:14:16.606Z,40.24
2023-02-23T08:16:43.614Z,39.77
2023-02-23T08:19:10.597Z,38.96
2023-02-23T08:21:40.063Z,38.74
2023-02-23T08:24:07.395Z,37.78
2023-02-23T08:26:36.501Z,37.12
2023-02-23T08:29:04.204Z,37.35
2023-02-23T08:31:31.448Z,38.73
2023-02-23T08:33:58.585Z,39.43
2023-02-23T08:36:25.908Z,39.83
2023-02-23T08:38:53.084Z,39.42
2023-02-23T08:41:21.540Z,40.18
2023-02-23T08:43:48.602Z,39.52
2023-02-23T08:46:15.741Z,40.13
2023-02-23T08:48:42.631Z,39.72
2023-02-23T08:51:09.698Z,40.20
2023-02-23T08:53:36.946Z,39.06
2023-02-23T08:56:09.335Z,40.02
2023-02-23T08:58:37.193Z,40.52
2023-02-23T09:01:05.276Z,40.03
2023-02-23T09:03:35.267Z,39.79
2023-02-23T09:06:11.553Z,39.58
2023-02-23T09:08:38.729Z,40.13
2023-02-23T09:11:06.458Z,39.17
2023-02-23T09:13:34.036Z,40.83
2023-02-23T09:16:01.007Z,40.65
2023-02-23T09:18:28.076Z,40.49
2023-02-23T09:20:56.244Z,40.12
2023-02-23T09:23:23.436Z,40.58
2023-02-23T09:25:50.678Z,40.29
2023-02-23T09:28:20.374Z,41.43
2023-02-23T09:30:47.576Z,42.19
2023-02-23T09:33:14.836Z,42.60
2023-02-23T09:35:43.010Z,42.68
2023-02-23T09:38:10.324Z,42.06
2023-02-23T09:40:45.027Z,41.79
2023-02-23T09:43:14.753Z,42.84
2023-02-23T09:45:48.123Z,43.82
2023-02-23T09:48:19.481Z,43.60
2023-02-23T09:50:54.182Z,43.78
2023-02-23T09:53:34.070Z,43.93
2023-02-23T09:56:10.516Z,44.73
2023-02-23T09:58:38.439Z,43.46
2023-02-23T10:01:08.585Z,43.70
2023-02-23T10:03:40.831Z,44.65
2023-02-23T10:06:11.449Z,44.25
2023-02-23T10:08:46.832Z,44.34
2023-02-23T10:11:50.110Z,43.30
2023-02-23T10:14:32.986Z,43.37
2023-02-23T10:17:29.257Z,44.13
2023-02-23T10:19:59.287Z,44.71
2023-02-23T10:22:28.558Z,44.26
2023-02-23T10:24:57.584Z,44.06
2023-02-23T10:27:32.694Z,44.09
2023-02-23T10:30:02.402Z,44.04
2023-02-23T10:32:46.326Z,44.09
2023-02-23T10:35:16.790Z,44.23
2023-02-23T10:37:45.426Z,44.54
2023-02-23T10:40:22.200Z,44.07
2023-02-23T10:42:50.512Z,44.20
2023-02-23T10:45:21.630Z,43.95
2023-02-23T10:47:59.481Z,44.42
2023-02-23T10:50:27.689Z,44.31
2023-02-23T10:53:24.226Z,44.35
2023-02-23T10:56:21.292Z,44.53
2023-02-23T10:59:06.449Z,43.83
2023-02-23T11:01:55.473Z,44.63
2023-02-23T11:04:31.130Z,44.37
2023-02-23T11:07:12.108Z,44.50
2023-02-23T11:09:47.191Z,44.27
2023-02-23T11:12:40.678Z,44.79
2023-02-23T11:15:48.137Z,43.74
2023-02-23T11:18:23.047Z,45.16
2023-02-23T11:20:51.935Z,44.31
2023-02-23T11:23:25.706Z,45.17
2023-02-23T11:25:54.812Z,44.73
2023-02-23T11:28:26.500Z,44.81
2023-02-23T11:30:53.704Z,44.59
2023-02-23T11:33:27.981Z,44.96
2023-02-23T11:36:00.312Z,45.68
2023-02-23T11:38:30.330Z,45.31
2023-02-23T11:41:06.912Z,44.93
2023-02-23T11:43:33.958Z,44.74
2023-02-23T11:46:02.826Z,44.74
2023-02-23T11:48:57.179Z,44.98
2023-02-23T11:51:29.454Z,44.58
2023-02-23T11:53:57.252Z,44.63
2023-02-23T11:56:26.279Z,45.13
2023-02-23T11:58:57.177Z,45.13
2023-02-23T12:01:35.153Z,45.15
2023-02-23T12:04:02.485Z,45.48
2023-02-23T12:06:41.560Z,44.71
2023-02-23T12:09:23.829Z,45.33
2023-02-23T12:12:13.228Z,45.57
2023-02-23T12:14:49.268Z,44.92
2023-02-23T12:17:21.670Z,45.57
2023-02-23T12:19:57.201Z,45.74
2023-02-23T12:22:32.237Z,45.97
2023-02-23T12:24:59.289Z,46.31
2023-02-23T12:27:39.631Z,46.80
2023-02-23T12:30:20.131Z,46.31
2023-02-23T12:33:21.347Z,46.42
2023-02-23T12:35:48.427Z,46.09
2023-02-23T12:38:50.965Z,46.43
2023-02-23T12:41:27.065Z,46.34
2023-02-23T12:44:10.722Z,46.33
2023-02-23T12:46:46.539Z,47.09
2023-02-23T12:49:32.205Z,47.42
2023-02-23T12:52:21.167Z,47.50
2023-02-23T12:54:48.500Z,47.63
2023-02-23T12:57:35.432Z,47.50
2023-02-23T13:00:21.266Z,47.38
2023-02-23T13:03:12.983Z,47.17
2023-02-23T13:05:52.828Z,47.27
2023-02-23T13:08:28.047Z,47.65
2023-02-23T13:11:05.310Z,48.22
2023-02-23T13:13:46.340Z,48.07
2023-02-23T13:16:29.293Z,48.30
2023-02-23T13:19:24.084Z,48.50
2023-02-23T13:22:00.195Z,48.84
2023-02-23T13:24:36.499Z,48.94
2023-02-23T13:27:39.103Z,48.92
2023-02-23T13:30:10.767Z,49.29
2023-02-23T13:32:39.054Z,49.83
2023-02-23T13:35:13.263Z,49.37
2023-02-23T13:37:54.423Z,49.70
2023-02-23T13:40:28.442Z,50.27
2023-02-23T13:43:16.664Z,50.09
2023-02-23T13:45:52.640Z,50.11
2023-02-23T13:49:02.562Z,49.94
2023-02-23T13:51:37.935Z,50.07
2023-02-23T13:54:14.125Z,50.09
2023-02-23T13:56:47.064Z,50.02
2023-02-23T13:59:20.975Z,50.19
2023-02-23T14:01:52.143Z,50.34
2023-02-23T14:04:28.219Z,50.64
2023-02-23T14:07:09.727Z,51.00
2023-02-23T14:09:56.863Z,51.18
2023-02-23T14:12:36.317Z,50.90
2023-02-23T14:15:25.507Z,51.03
2023-02-23T14:18:03.073Z,51.43
2023-02-23T14:20:38.862Z,51.90
2023-02-23T14:23:28.296Z,51.18
2023-02-23T14:26:24.453Z,51.69
2023-02-23T14:29:17.111Z,51.83
2023-02-23T14:31:55.474Z,51.63
2023-02-23T14:34:23.015Z,51.95
2023-02-23T14:36:51.382Z,52.50
2023-02-23T14:39:29.532Z,51.98
2023-02-23T14:41:59.979Z,52.08
2023-02-23T14:44:32.533Z,51.95
2023-02-23T14:47:13.259Z,52.64
2023-02-23T14:49:54.666Z,52.50
2023-02-23T14:52:25.307Z,51.82
2023-02-23T14:55:04.602Z,52.48
2023-02-23T14:57:37.381Z,52.85
2023-02-23T15:00:16.137Z,52.41
2023-02-23T15:02:59.359Z,52.13
2023-02-23T15:05:57.820Z,52.53
2023-02-23T15:08:28.094Z,51.93
2023-02-23T15:11:06.909Z,52.54
2023-02-23T15:13:39.726Z,52.26
2023-02-23T15:16:08.623Z,52.44
2023-02-23T15:18:43.604Z,52.11
2023-02-23T15:21:19.845Z,52.36
2023-02-23T15:23:50.636Z,51.93
2023-02-23T15:26:35.079Z,51.69
2023-02-23T15:29:08.276Z,50.97
2023-02-23T15:31:35.717Z,51.09
2023-02-23T15:34:03.371Z,50.60
2023-02-23T15:36:34.942Z,49.93
2023-02-23T15:39:07.823Z,50.15
2023-02-23T15:41:37.722Z,49.92
2023-02-23T15:44:04.590Z,49.89
2023-02-23T15:46:33.703Z,49.25
2023-02-23T15:49:02.216Z,49.78
2023-02-23T15:51:43.520Z,49.45
2023-02-23T15:54:34.539Z,50.05
2023-02-23T15:57:08.662Z,50.58
2023-02-23T15:59:39.530Z,50.11
2023-02-23T16:02:16.521Z,50.29
2023-02-23T16:04:44.497Z,50.62
2023-02-23T16:07:17.881Z,50.86
2023-02-23T16:09:52.474Z,51.20
2023-02-23T16:12:39.756Z,51.23
2023-02-23T16:15:23.500Z,50.70
2023-02-23T16:17:57.985Z,50.43
2023-02-23T16:20:32.972Z,50.63
2023-02-23T16:23:01.516Z,50.33
2023-02-23T16:25:30.650Z,50.34
2023-02-23T16:28:09.659Z,50.32
2023-02-23T16:30:58.183Z,50.13
2023-02-23T16:33:32.115Z,49.51
2023-02-23T16:36:11.209Z,49.51
2023-02-23T16:38:55.782Z,49.33
2023-02-23T16:41:23.995Z,49.21
2023-02-23T16:43:53.344Z,48.87
2023-02-23T16:46:24.148Z,49.14
2023-02-23T16:48:53.401Z,49.18
2023-02-23T16:51:22.221Z,48.72
2023-02-23T16:53:49.709Z,49.09
2023-02-23T16:56:21.034Z,48.48
2023-02-23T16:58:59.192Z,48.49
2023-02-23T17:01:26.534Z,48.73
2023-02-23T17:03:53.742Z,48.76
2023-02-23T17:06:22.952Z,48.29
2023-02-23T17:08:58.416Z,49.06
2023-02-23T17:11:26.517Z,48.71
2023-02-23T17:13:53.605Z,48.97
2023-02-23T17:16:21.099Z,49.08
2023-02-23T17:18:48.402Z,49.72
2023-02-23T17:21:16.632Z,49.43
2023-02-23T17:23:43.562Z,49.08
2023-02-23T17:26:11.982Z,49.05
2023-02-23T17:28:39.669Z,49.33
2023-02-23T17:31:08.010Z,50.04
2023-02-23T17:33:36.173Z,49.78
2023-02-23T17:36:08.268Z,49.98
2023-02-23T17:38:35.268Z,50.12
2023-02-23T17:41:10.223Z,49.83
2023-02-23T17:43:37.429Z,49.81
2023-02-23T17:46:04.923Z,49.80
2023-02-23T17:48:32.208Z,50.06
2023-02-23T17:51:01.281Z,49.58
2023-02-23T17:53:29.685Z,50.37
2023-02-23T17:55:57.769Z,50.47
2023-02-23T17:58:25.188Z,50.22
2023-02-23T18:00:56.779Z,49.42
2023-02-23T18:03:24.992Z,49.37
2023-02-23T18:05:52.030Z,49.54
2023-02-23T18:08:19.457Z,48.81
2023-02-23T18:10:53.615Z,49.69
2023-02-23T18:13:20.833Z,49.51
2023-02-23T18:15:49.663Z,49.06
2023-02-23T18:18:22.122Z,48.86
2023-02-23T18:20:55.322Z,48.80
2023-02-23T18:23:23.946Z,48.73
2023-02-23T18:25:51.102Z,49.02
2023-02-23T18:28:18.861Z,48.36
2023-02-23T18:30:46.428Z,49.28
2023-02-23T18:33:14.091Z,48.96
2023-02-23T18:35:43.876Z,48.36
2023-02-23T18:38:13.043Z,48.45
2023-02-23T18:40:43.394Z,48.50
2023-02-23T18:43:13.337Z,48.33
2023-02-23T18:45:40.344Z,48.01
2023-02-23T18:48:07.362Z,48.19
2023-02-23T18:50:34.248Z,48.12
2023-02-23T18:53:01.161Z,48.02
2023-02-23T18:55:30.558Z,48.39
2023-02-23T18:57:57.637Z,48.24
2023-02-23T19:00:25.570Z,48.32
2023-02-23T19:02:52.680Z,47.80
2023-02-23T19:05:22.351Z,48.45
2023-02-23T19:07:49.498Z,48.43
2023-02-23T19:10:17.331Z,48.96
2023-02-23T19:12:44.491Z,49.32
2023-02-23T19:15:11.966Z,49.10
2023-02-23T19:17:39.773Z,49.90
2023-02-23T19:20:07.233Z,49.93
2023-02-23T19:22:34.243Z,49.59
2023-02-23T19:25:01.391Z,49.11
2023-02-23T19:27:29.980Z,50.15
2023-02-23T19:29:59.458Z,50.93
2023-02-23T19:32:26.868Z,50.78
2023-02-23T19:34:53.831Z,51.30
2023-02-23T19:37:20.914Z,50.97
2023-02-23T19:39:47.896Z,51.31
2023-02-23T19:42:14.922Z,51.13
2023-02-23T19:44:42.271Z,52.13
2023-02-23T19:47:09.231Z,51.75
2023-02-23T19:49:36.122Z,51.60
2023-02-23T19:52:03.017Z,51.09
2023-02-23T19:54:29.944Z,51.00
2023-02-23T19:56:57.813Z,51.04
2023-02-23T19:59:24.814Z,50.55
2023-02-23T20:01:52.166Z,50.28
2023-02-23T20:04:19.178Z,50.12
2023-02-23T20:06:46.153Z,49.79
2023-02-23T20:09:14.912Z,49.39
2023-02-23T20:11:42.035Z,49.70
2023-02-23T20:14:10.562Z,49.33
2023-02-23T20:16:37.545Z,49.70
2023-02-23T20:19:05.141Z,49.38
2023-02-23T20:21:32.927Z,48.90
2023-02-23T20:24:00.341Z,48.58
2023-02-23T20:26:33.848Z,49.07
2023-02-23T20:29:01.644Z,48.90
2023-02-23T20:31:33.924Z,48.84
2023-02-23T20:34:06.567Z,48.76
2023-02-23T20:36:36.993Z,49.19
2023-02-23T20:39:04.599Z,48.96
2023-02-23T20:41:31.609Z,49.65
2023-02-23T20:43:58.834Z,49.12
2023-02-23T20:46:25.824Z,48.42
2023-02-23T20:48:52.739Z,48.23
2023-02-23T20:51:20.099Z,48.09
2023-02-23T20:53:48.621Z,48.05
2023-02-23T20:56:17.746Z,48.15
2023-02-23T20:58:46.252Z,48.18
2023-02-23T21:01:20.373Z,48.04
2023-02-23T21:03:48.802Z,47.63
2023-02-23T21:06:15.711Z,47.53
2023-02-23T21:08:42.713Z,48.06
2023-02-23T21:11:09.637Z,48.42
2023-02-23T21:13:39.187Z,48.87
2023-02-23T21:16:07.049Z,48.52
2023-02-23T21:18:34.127Z,48.45
2023-02-23T21:21:01.137Z,47.99
2023-02-23T21:23:28.018Z,48.64
2023-02-23T21:25:55.025Z,48.64
2023-02-23T21:28:21.878Z,49.26
2023-02-23T21:30:49.035Z,49.46
2023-02-23T21:33:16.060Z,50.14
2023-02-23T21:35:43.096Z,49.98
2023-02-23T21:38:09.999Z,50.29
2023-02-23T21:40:37.183Z,50.44
2023-02-23T21:43:04.228Z,50.33
2023-02-23T21:45:31.314Z,50.32
2023-02-23T21:48:02.627Z,51.06
2023-02-23T21:50:30.453Z,51.11
2023-02-23T21:52:57.319Z,51.00
2023-02-23T21:55:24.500Z,50.50
2023-02-23T21:57:52.074Z,51.04
2023-02-23T22:00:19.709Z,51.21
2023-02-23T22:02:47.014Z,51.63
2023-02-23T22:05:16.008Z,50.71
2023-02-23T22:07:51.827Z,51.04
2023-02-23T22:10:20.984Z,50.82
2023-02-23T22:12:49.070Z,51.05
2023-02-23T22:15:16.580Z,50.94
2023-02-23T22:17:44.501Z,51.29
2023-02-23T22:20:12.441Z,50.69
2023-02-23T22:22:39.519Z,51.10
2023-02-23T22:25:07.749Z,50.59
2023-02-23T22:27:34.833Z,50.75
2023-02-23T22:30:02.047Z,50.01
2023-02-23T22:32:30.107Z,50.23
2023-02-23T22:34:57.178Z,50.95
2023-02-23T22:37:24.150Z,50.74
2023-02-23T22:39:51.126Z,50.76
2023-02-23T22:42:18.055Z,50.29
2023-02-23T22:44:44.988Z,50.29
2023-02-23T22:47:11.907Z,50.46
2023-02-23T22:49:39.014Z,50.70
2023-02-23T22:52:05.907Z,50.95
2023-02-23T22:54:32.881Z,50.52
2023-02-23T22:56:59.806Z,51.18
2023-02-23T22:59:27.118Z,50.53
2023-02-23T23:01:54.224Z,50.19
2023-02-23T23:04:21.200Z,50.48
2023-02-23T23:06:48.199Z,50.20
2023-02-23T23:09:15.385Z,50.45
2023-02-23T23:11:42.673Z,50.08
2023-02-23T23:14:11.249Z,49.90
2023-02-23T23:16:40.447Z,49.63
2023-02-23T23:19:09.635Z,49.43
2023-02-23T23:21:37.051Z,49.44
2023-02-23T23:24:05.574Z,49.57
2023-02-23T23:26:35.369Z,49.39
2023-02-23T23:29:04.694Z,49.25
2023-02-23T23:31:34.034Z,49.23
2023-02-23T23:34:10.009Z,49.52
2023-02-23T23:36:39.862Z,49.27
2023-02-23T23:39:06.792Z,49.48
2023-02-23T23:41:33.882Z,48.65
2023-02-23T23:44:01.308Z,49.24
2023-02-23T23:46:30.772Z,48.76
2023-02-23T23:49:07.127Z,48.62
2023-02-23T23:51:36.930Z,48.25
2023-02-23T23:54:04.665Z,48.61
2023-02-23T23:56:32.686Z,48.10
2023-02-23T23:58:59.642Z,47.44
